sensor_id;sensor_type;location;lat;lon;timestamp;temperature;humidity
18426;DHT22;9340;48.756;9.226;2023-05-14T00:01:01;12.30;99.90
18426;DHT22;9340;48.756;9.226;2023-05-14T00:03:27;12.30;99.90
18426;DHT22;9340;48.756;9.226;2023-05-14T00:05:54;12.30;99.90
18426;DHT22;9340;48.756;9.226;2023-05-14T00:08:22;12.40;99.90
18426;DHT22;9340;48.756;9.226;2023-05-14T00:10:49;12.40;99.90
18426;DHT22;9340;48.756;9.226;2023-05-14T00:13:16;12.30;99.90
18426;DHT22;9340;48.756;9.226;2023-05-14T00:15:42;12.30;99.90
18426;DHT22;9340;48.756;9.226;2023-05-14T00:18:09;12.40;99.90
18426;DHT22;9340;48.756;9.226;2023-05-14T00:20:36;12.30;99.90
18426;DHT22;9340;48.756;9.226;2023-05-14T00:23:03;12.30;99.90
18426;DHT22;9340;48.756;9.226;2023-05-14T00:25:31;12.30;99.90
18426;DHT22;9340;48.756;9.226;2023-05-14T00:27:58;12.20;99.90
18426;DHT22;9340;48.756;9.226;2023-05-14T00:30:24;12.20;99.90
18426;DHT22;9340;48.756;9.226;2023-05-14T00:32:51;12.20;99.90
18426;DHT22;9340;48.756;9.226;2023-05-14T00:35:18;12.20;99.90
18426;DHT22;9340;48.756;9.226;2023-05-14T00:37:45;12.10;99.90
18426;DHT22;9340;48.756;9.226;2023-05-14T00:40:12;12.10;99.90
18426;DHT22;9340;48.756;9.226;2023-05-14T00:42:40;12.10;99.90
18426;DHT22;9340;48.756;9.226;2023-05-14T00:45:07;12.00;99.90
18426;DHT22;9340;48.756;9.226;2023-05-14T00:47:35;12.00;99.90
18426;DHT22;9340;48.756;9.226;2023-05-14T00:50:04;11.90;99.90
18426;DHT22;9340;48.756;9.226;2023-05-14T00:52:31;11.90;99.90
18426;DHT22;9340;48.756;9.226;2023-05-14T00:54:58;11.80;99.90
18426;DHT22;9340;48.756;9.226;2023-05-14T00:57:25;11.70;99.90
18426;DHT22;9340;48.756;9.226;2023-05-14T00:59:53;11.50;99.90
18426;DHT22;9340;48.756;9.226;2023-05-14T01:02:20;11.40;99.90
18426;DHT22;9340;48.756;9.226;2023-05-14T01:04:46;11.30;99.90
18426;DHT22;9340;48.756;9.226;2023-05-14T01:07:19;11.20;99.90
18426;DHT22;9340;48.756;9.226;2023-05-14T01:09:51;11.10;99.90
18426;DHT22;9340;48.756;9.226;2023-05-14T01:12:26;11.00;99.90
18426;DHT22;9340;48.756;9.226;2023-05-14T01:15:01;10.90;99.90
18426;DHT22;9340;48.756;9.226;2023-05-14T01:17:32;10.90;99.90
18426;DHT22;9340;48.756;9.226;2023-05-14T01:20:04;10.80;99.90
18426;DHT22;9340;48.756;9.226;2023-05-14T01:22:32;10.70;99.90
18426;DHT22;9340;48.756;9.226;2023-05-14T01:24:59;10.60;99.90
18426;DHT22;9340;48.756;9.226;2023-05-14T01:27:30;10.50;99.90
18426;DHT22;9340;48.756;9.226;2023-05-14T01:30:04;10.60;99.90
18426;DHT22;9340;48.756;9.226;2023-05-14T01:32:33;10.50;99.90
18426;DHT22;9340;48.756;9.226;2023-05-14T01:35:00;10.50;99.90
18426;DHT22;9340;48.756;9.226;2023-05-14T01:37:29;10.40;99.90
18426;DHT22;9340;48.756;9.226;2023-05-14T01:39:58;10.30;99.90
18426;DHT22;9340;48.756;9.226;2023-05-14T01:42:26;10.30;99.90
18426;DHT22;9340;48.756;9.226;2023-05-14T01:44:54;10.40;99.90
18426;DHT22;9340;48.756;9.226;2023-05-14T01:47:21;10.30;99.90
18426;DHT22;9340;48.756;9.226;2023-05-14T01:49:47;10.20;99.90
18426;DHT22;9340;48.756;9.226;2023-05-14T01:52:14;10.10;99.90
18426;DHT22;9340;48.756;9.226;2023-05-14T01:54:41;10.10;99.90
18426;DHT22;9340;48.756;9.226;2023-05-14T01:57:09;10.00;99.90
18426;DHT22;9340;48.756;9.226;2023-05-14T01:59:35;9.90;99.90
18426;DHT22;9340;48.756;9.226;2023-05-14T02:02:02;9.80;99.90
18426;DHT22;9340;48.756;9.226;2023-05-14T02:04:29;9.80;99.90
18426;DHT22;9340;48.756;9.226;2023-05-14T02:06:55;9.80;99.90
18426;DHT22;9340;48.756;9.226;2023-05-14T02:09:22;9.70;99.90
18426;DHT22;9340;48.756;9.226;2023-05-14T02:11:49;9.70;99.90
18426;DHT22;9340;48.756;9.226;2023-05-14T02:14:17;9.70;99.90
18426;DHT22;9340;48.756;9.226;2023-05-14T02:16:43;9.80;99.90
18426;DHT22;9340;48.756;9.226;2023-05-14T02:19:10;9.90;99.90
18426;DHT22;9340;48.756;9.226;2023-05-14T02:21:37;10.00;99.90
18426;DHT22;9340;48.756;9.226;2023-05-14T02:24:04;10.00;99.90
18426;DHT22;9340;48.756;9.226;2023-05-14T02:26:30;10.00;99.90
18426;DHT22;9340;48.756;9.226;2023-05-14T02:28:57;10.10;99.90
18426;DHT22;9340;48.756;9.226;2023-05-14T02:31:25;10.10;99.90
18426;DHT22;9340;48.756;9.226;2023-05-14T02:33:51;10.10;99.90
18426;DHT22;9340;48.756;9.226;2023-05-14T02:36:18;10.20;99.90
18426;DHT22;9340;48.756;9.226;2023-05-14T02:38:45;10.20;99.90
18426;DHT22;9340;48.756;9.226;2023-05-14T02:41:11;10.20;99.90
18426;DHT22;9340;48.756;9.226;2023-05-14T02:43:38;10.20;99.90
18426;DHT22;9340;48.756;9.226;2023-05-14T02:46:05;10.30;99.90
18426;DHT22;9340;48.756;9.226;2023-05-14T02:48:33;10.30;99.90
18426;DHT22;9340;48.756;9.226;2023-05-14T02:51:00;10.40;99.90
18426;DHT22;9340;48.756;9.226;2023-05-14T02:53:27;10.50;99.90
18426;DHT22;9340;48.756;9.226;2023-05-14T02:55:53;10.50;99.90
18426;DHT22;9340;48.756;9.226;2023-05-14T02:58:20;10.50;99.90
18426;DHT22;9340;48.756;9.226;2023-05-14T03:00:47;10.50;99.90
18426;DHT22;9340;48.756;9.226;2023-05-14T03:03:13;10.60;99.90
18426;DHT22;9340;48.756;9.226;2023-05-14T03:05:41;10.60;99.90
18426;DHT22;9340;48.756;9.226;2023-05-14T03:08:08;10.70;99.90
18426;DHT22;9340;48.756;9.226;2023-05-14T03:10:35;10.60;99.90
18426;DHT22;9340;48.756;9.226;2023-05-14T03:13:01;10.70;99.90
18426;DHT22;9340;48.756;9.226;2023-05-14T03:15:28;10.70;99.90
18426;DHT22;9340;48.756;9.226;2023-05-14T03:17:55;10.70;99.90
18426;DHT22;9340;48.756;9.226;2023-05-14T03:20:22;10.70;99.90
18426;DHT22;9340;48.756;9.226;2023-05-14T03:22:51;10.80;99.90
18426;DHT22;9340;48.756;9.226;2023-05-14T03:25:19;10.90;99.90
18426;DHT22;9340;48.756;9.226;2023-05-14T03:27:45;10.90;99.90
18426;DHT22;9340;48.756;9.226;2023-05-14T03:30:12;10.90;99.90
18426;DHT22;9340;48.756;9.226;2023-05-14T03:32:39;10.90;99.90
18426;DHT22;9340;48.756;9.226;2023-05-14T03:35:07;10.90;99.90
18426;DHT22;9340;48.756;9.226;2023-05-14T03:37:34;10.90;99.90
18426;DHT22;9340;48.756;9.226;2023-05-14T03:40:02;10.80;99.90
18426;DHT22;9340;48.756;9.226;2023-05-14T03:42:29;10.80;99.90
18426;DHT22;9340;48.756;9.226;2023-05-14T03:44:56;10.90;99.90
18426;DHT22;9340;48.756;9.226;2023-05-14T03:47:23;10.90;99.90
18426;DHT22;9340;48.756;9.226;2023-05-14T03:49:49;11.00;99.90
18426;DHT22;9340;48.756;9.226;2023-05-14T03:52:16;11.10;99.90
18426;DHT22;9340;48.756;9.226;2023-05-14T03:54:43;11.10;99.90
18426;DHT22;9340;48.756;9.226;2023-05-14T03:57:11;11.10;99.90
18426;DHT22;9340;48.756;9.226;2023-05-14T03:59:37;11.20;99.90
18426;DHT22;9340;48.756;9.226;2023-05-14T04:02:04;11.20;99.90
18426;DHT22;9340;48.756;9.226;2023-05-14T04:04:30;11.20;99.90
18426;DHT22;9340;48.756;9.226;2023-05-14T04:06:57;11.30;99.90
18426;DHT22;9340;48.756;9.226;2023-05-14T04:09:24;11.20;99.90
18426;DHT22;9340;48.756;9.226;2023-05-14T04:11:50;11.20;99.90
18426;DHT22;9340;48.756;9.226;2023-05-14T04:14:18;11.30;99.90
18426;DHT22;9340;48.756;9.226;2023-05-14T04:16:45;11.30;99.90
18426;DHT22;9340;48.756;9.226;2023-05-14T04:19:12;11.40;99.90
18426;DHT22;9340;48.756;9.226;2023-05-14T04:21:38;11.50;99.90
18426;DHT22;9340;48.756;9.226;2023-05-14T04:24:06;11.40;99.90
18426;DHT22;9340;48.756;9.226;2023-05-14T04:26:32;11.40;99.90
18426;DHT22;9340;48.756;9.226;2023-05-14T04:28:59;11.40;99.90
18426;DHT22;9340;48.756;9.226;2023-05-14T04:31:29;11.40;99.90
18426;DHT22;9340;48.756;9.226;2023-05-14T04:33:56;11.30;99.90
18426;DHT22;9340;48.756;9.226;2023-05-14T04:36:22;11.30;99.90
18426;DHT22;9340;48.756;9.226;2023-05-14T04:38:49;11.40;99.90
18426;DHT22;9340;48.756;9.226;2023-05-14T04:41:16;11.50;99.90
18426;DHT22;9340;48.756;9.226;2023-05-14T04:43:42;11.60;99.90
18426;DHT22;9340;48.756;9.226;2023-05-14T04:46:09;11.70;99.90
18426;DHT22;9340;48.756;9.226;2023-05-14T04:48:37;11.70;99.90
18426;DHT22;9340;48.756;9.226;2023-05-14T04:51:03;11.70;99.90
18426;DHT22;9340;48.756;9.226;2023-05-14T04:53:30;11.70;99.90
18426;DHT22;9340;48.756;9.226;2023-05-14T04:55:57;11.80;99.90
18426;DHT22;9340;48.756;9.226;2023-05-14T04:58:23;11.80;99.90
18426;DHT22;9340;48.756;9.226;2023-05-14T05:00:53;11.90;99.90
18426;DHT22;9340;48.756;9.226;2023-05-14T05:03:20;11.90;99.90
18426;DHT22;9340;48.756;9.226;2023-05-14T05:05:48;11.90;99.90
18426;DHT22;9340;48.756;9.226;2023-05-14T05:08:15;11.90;99.90
18426;DHT22;9340;48.756;9.226;2023-05-14T05:10:41;12.00;99.90
18426;DHT22;9340;48.756;9.226;2023-05-14T05:13:08;12.00;99.90
18426;DHT22;9340;48.756;9.226;2023-05-14T05:15:34;12.00;99.90
18426;DHT22;9340;48.756;9.226;2023-05-14T05:18:01;12.10;99.90
18426;DHT22;9340;48.756;9.226;2023-05-14T05:20:28;12.10;99.90
18426;DHT22;9340;48.756;9.226;2023-05-14T05:22:56;12.10;99.90
18426;DHT22;9340;48.756;9.226;2023-05-14T05:25:24;12.10;99.90
18426;DHT22;9340;48.756;9.226;2023-05-14T05:27:50;12.10;99.90
18426;DHT22;9340;48.756;9.226;2023-05-14T05:30:17;12.20;99.90
18426;DHT22;9340;48.756;9.226;2023-05-14T05:32:44;12.20;99.90
18426;DHT22;9340;48.756;9.226;2023-05-14T05:35:10;12.30;99.90
18426;DHT22;9340;48.756;9.226;2023-05-14T05:37:37;12.30;99.90
18426;DHT22;9340;48.756;9.226;2023-05-14T05:40:07;12.30;99.90
18426;DHT22;9340;48.756;9.226;2023-05-14T05:42:34;12.40;99.90
18426;DHT22;9340;48.756;9.226;2023-05-14T05:45:01;12.30;99.90
18426;DHT22;9340;48.756;9.226;2023-05-14T05:47:27;12.40;99.90
18426;DHT22;9340;48.756;9.226;2023-05-14T05:49:54;12.50;99.90
18426;DHT22;9340;48.756;9.226;2023-05-14T05:52:21;12.60;99.90
18426;DHT22;9340;48.756;9.226;2023-05-14T05:54:48;12.60;99.90
18426;DHT22;9340;48.756;9.226;2023-05-14T05:57:16;12.70;99.90
18426;DHT22;9340;48.756;9.226;2023-05-14T05:59:42;12.80;99.90
18426;DHT22;9340;48.756;9.226;2023-05-14T06:02:09;12.80;99.90
18426;DHT22;9340;48.756;9.226;2023-05-14T06:04:36;12.90;99.90
18426;DHT22;9340;48.756;9.226;2023-05-14T06:07:03;13.00;99.90
18426;DHT22;9340;48.756;9.226;2023-05-14T06:09:29;13.20;99.90
18426;DHT22;9340;48.756;9.226;2023-05-14T06:11:56;13.40;99.90
18426;DHT22;9340;48.756;9.226;2023-05-14T06:14:24;13.60;99.90
18426;DHT22;9340;48.756;9.226;2023-05-14T06:16:51;13.60;99.90
18426;DHT22;9340;48.756;9.226;2023-05-14T06:19:17;13.50;99.90
18426;DHT22;9340;48.756;9.226;2023-05-14T06:21:44;13.40;99.90
18426;DHT22;9340;48.756;9.226;2023-05-14T06:24:11;13.50;99.90
18426;DHT22;9340;48.756;9.226;2023-05-14T06:26:38;13.80;99.90
18426;DHT22;9340;48.756;9.226;2023-05-14T06:29:05;14.00;99.90
18426;DHT22;9340;48.756;9.226;2023-05-14T06:31:32;14.20;99.90
18426;DHT22;9340;48.756;9.226;2023-05-14T06:33:59;14.40;99.90
18426;DHT22;9340;48.756;9.226;2023-05-14T06:36:26;14.20;99.90
18426;DHT22;9340;48.756;9.226;2023-05-14T06:38:53;13.80;99.90
18426;DHT22;9340;48.756;9.226;2023-05-14T06:41:19;13.70;99.90
18426;DHT22;9340;48.756;9.226;2023-05-14T06:43:47;13.70;99.90
18426;DHT22;9340;48.756;9.226;2023-05-14T06:46:13;13.60;99.90
18426;DHT22;9340;48.756;9.226;2023-05-14T06:48:41;13.50;99.90
18426;DHT22;9340;48.756;9.226;2023-05-14T06:51:08;13.70;99.90
18426;DHT22;9340;48.756;9.226;2023-05-14T06:53:35;13.90;99.90
18426;DHT22;9340;48.756;9.226;2023-05-14T06:56:02;14.10;99.90
18426;DHT22;9340;48.756;9.226;2023-05-14T06:58:29;14.30;99.90
18426;DHT22;9340;48.756;9.226;2023-05-14T07:00:55;14.60;99.90
18426;DHT22;9340;48.756;9.226;2023-05-14T07:03:22;14.60;99.90
18426;DHT22;9340;48.756;9.226;2023-05-14T07:05:50;14.60;99.90
18426;DHT22;9340;48.756;9.226;2023-05-14T07:08:17;14.60;99.90
18426;DHT22;9340;48.756;9.226;2023-05-14T07:10:43;14.60;99.90
18426;DHT22;9340;48.756;9.226;2023-05-14T07:13:10;14.70;99.90
18426;DHT22;9340;48.756;9.226;2023-05-14T07:15:37;14.90;99.90
18426;DHT22;9340;48.756;9.226;2023-05-14T07:18:03;15.00;99.90
18426;DHT22;9340;48.756;9.226;2023-05-14T07:20:30;15.20;99.90
18426;DHT22;9340;48.756;9.226;2023-05-14T07:22:58;15.40;99.90
18426;DHT22;9340;48.756;9.226;2023-05-14T07:25:25;15.70;99.90
18426;DHT22;9340;48.756;9.226;2023-05-14T07:27:51;16.00;99.90
18426;DHT22;9340;48.756;9.226;2023-05-14T07:30:18;16.30;99.90
18426;DHT22;9340;48.756;9.226;2023-05-14T07:32:45;16.60;99.90
18426;DHT22;9340;48.756;9.226;2023-05-14T07:35:11;17.00;99.90
18426;DHT22;9340;48.756;9.226;2023-05-14T07:37:38;17.40;99.90
18426;DHT22;9340;48.756;9.226;2023-05-14T07:40:07;17.40;99.90
18426;DHT22;9340;48.756;9.226;2023-05-14T07:42:34;17.50;99.90
18426;DHT22;9340;48.756;9.226;2023-05-14T07:45:01;17.70;99.90
18426;DHT22;9340;48.756;9.226;2023-05-14T07:47:28;17.90;99.90
18426;DHT22;9340;48.756;9.226;2023-05-14T07:49:55;18.00;99.90
18426;DHT22;9340;48.756;9.226;2023-05-14T07:52:22;17.90;99.90
18426;DHT22;9340;48.756;9.226;2023-05-14T07:54:50;17.90;99.90
18426;DHT22;9340;48.756;9.226;2023-05-14T07:57:18;18.20;99.90
18426;DHT22;9340;48.756;9.226;2023-05-14T07:59:46;18.10;99.90
18426;DHT22;9340;48.756;9.226;2023-05-14T08:02:13;17.80;99.90
18426;DHT22;9340;48.756;9.226;2023-05-14T08:04:40;17.60;99.90
18426;DHT22;9340;48.756;9.226;2023-05-14T08:07:08;17.60;99.90
18426;DHT22;9340;48.756;9.226;2023-05-14T08:09:34;17.50;99.90
18426;DHT22;9340;48.756;9.226;2023-05-14T08:12:01;17.40;99.90
18426;DHT22;9340;48.756;9.226;2023-05-14T08:14:29;17.40;99.90
18426;DHT22;9340;48.756;9.226;2023-05-14T08:16:56;17.20;99.90
18426;DHT22;9340;48.756;9.226;2023-05-14T08:19:22;17.10;99.90
18426;DHT22;9340;48.756;9.226;2023-05-14T08:21:52;17.20;99.90
18426;DHT22;9340;48.756;9.226;2023-05-14T08:24:18;17.60;99.90
18426;DHT22;9340;48.756;9.226;2023-05-14T08:26:45;18.00;99.90
18426;DHT22;9340;48.756;9.226;2023-05-14T08:29:12;18.60;99.90
18426;DHT22;9340;48.756;9.226;2023-05-14T08:31:40;19.30;99.90
18426;DHT22;9340;48.756;9.226;2023-05-14T08:34:06;19.30;99.90
18426;DHT22;9340;48.756;9.226;2023-05-14T08:36:33;19.30;99.90
18426;DHT22;9340;48.756;9.226;2023-05-14T08:39:00;19.50;99.90
18426;DHT22;9340;48.756;9.226;2023-05-14T08:41:26;19.20;99.90
18426;DHT22;9340;48.756;9.226;2023-05-14T08:44:00;18.80;99.90
18426;DHT22;9340;48.756;9.226;2023-05-14T08:46:29;18.90;99.90
18426;DHT22;9340;48.756;9.226;2023-05-14T08:49:02;19.20;99.90
18426;DHT22;9340;48.756;9.226;2023-05-14T08:51:30;19.30;99.90
18426;DHT22;9340;48.756;9.226;2023-05-14T08:53:58;19.60;99.90
18426;DHT22;9340;48.756;9.226;2023-05-14T08:56:29;19.70;99.90
18426;DHT22;9340;48.756;9.226;2023-05-14T08:58:57;19.70;99.90
18426;DHT22;9340;48.756;9.226;2023-05-14T09:01:24;19.50;99.90
18426;DHT22;9340;48.756;9.226;2023-05-14T09:03:53;19.30;99.90
18426;DHT22;9340;48.756;9.226;2023-05-14T09:06:21;19.10;99.90
18426;DHT22;9340;48.756;9.226;2023-05-14T09:08:49;19.20;99.90
18426;DHT22;9340;48.756;9.226;2023-05-14T09:11:16;19.40;99.90
18426;DHT22;9340;48.756;9.226;2023-05-14T09:13:42;19.80;99.90
18426;DHT22;9340;48.756;9.226;2023-05-14T09:16:09;19.80;99.90
18426;DHT22;9340;48.756;9.226;2023-05-14T09:18:36;20.00;99.90
18426;DHT22;9340;48.756;9.226;2023-05-14T09:21:03;19.90;99.90
18426;DHT22;9340;48.756;9.226;2023-05-14T09:23:32;19.70;99.90
18426;DHT22;9340;48.756;9.226;2023-05-14T09:26:03;19.30;99.90
18426;DHT22;9340;48.756;9.226;2023-05-14T09:28:30;18.90;99.90
18426;DHT22;9340;48.756;9.226;2023-05-14T09:30:56;18.80;99.90
18426;DHT22;9340;48.756;9.226;2023-05-14T09:33:26;19.20;99.90
18426;DHT22;9340;48.756;9.226;2023-05-14T09:35:56;20.10;99.90
18426;DHT22;9340;48.756;9.226;2023-05-14T09:38:27;20.60;99.90
18426;DHT22;9340;48.756;9.226;2023-05-14T09:40:55;20.50;99.90
18426;DHT22;9340;48.756;9.226;2023-05-14T09:43:22;19.90;99.90
18426;DHT22;9340;48.756;9.226;2023-05-14T09:45:49;19.30;99.90
18426;DHT22;9340;48.756;9.226;2023-05-14T09:48:15;19.40;99.90
18426;DHT22;9340;48.756;9.226;2023-05-14T09:50:43;19.50;99.90
18426;DHT22;9340;48.756;9.226;2023-05-14T09:53:10;19.70;99.90
18426;DHT22;9340;48.756;9.226;2023-05-14T09:55:38;19.90;99.90
18426;DHT22;9340;48.756;9.226;2023-05-14T09:58:06;20.00;99.90
18426;DHT22;9340;48.756;9.226;2023-05-14T10:00:33;19.90;99.90
18426;DHT22;9340;48.756;9.226;2023-05-14T10:03:04;19.50;99.90
18426;DHT22;9340;48.756;9.226;2023-05-14T10:05:32;19.10;99.90
18426;DHT22;9340;48.756;9.226;2023-05-14T10:08:03;19.00;99.90
18426;DHT22;9340;48.756;9.226;2023-05-14T10:10:31;18.80;99.90
18426;DHT22;9340;48.756;9.226;2023-05-14T10:13:02;18.90;99.90
18426;DHT22;9340;48.756;9.226;2023-05-14T10:15:35;18.80;99.90
18426;DHT22;9340;48.756;9.226;2023-05-14T10:18:08;18.90;99.90
18426;DHT22;9340;48.756;9.226;2023-05-14T10:20:36;19.10;99.90
18426;DHT22;9340;48.756;9.226;2023-05-14T10:23:04;19.40;99.90
18426;DHT22;9340;48.756;9.226;2023-05-14T10:25:32;19.70;99.90
18426;DHT22;9340;48.756;9.226;2023-05-14T10:27:59;20.00;99.90
18426;DHT22;9340;48.756;9.226;2023-05-14T10:30:26;20.50;99.90
18426;DHT22;9340;48.756;9.226;2023-05-14T10:33:10;21.10;99.90
18426;DHT22;9340;48.756;9.226;2023-05-14T10:35:50;21.60;99.90
18426;DHT22;9340;48.756;9.226;2023-05-14T10:38:21;21.80;99.90
18426;DHT22;9340;48.756;9.226;2023-05-14T10:40:48;22.10;99.90
18426;DHT22;9340;48.756;9.226;2023-05-14T10:43:16;22.50;99.90
18426;DHT22;9340;48.756;9.226;2023-05-14T10:45:43;22.80;99.90
18426;DHT22;9340;48.756;9.226;2023-05-14T10:48:12;22.40;99.90
18426;DHT22;9340;48.756;9.226;2023-05-14T10:50:40;21.90;99.90
18426;DHT22;9340;48.756;9.226;2023-05-14T10:53:09;21.80;99.90
18426;DHT22;9340;48.756;9.226;2023-05-14T10:55:38;21.80;99.90
18426;DHT22;9340;48.756;9.226;2023-05-14T10:58:05;21.50;99.90
18426;DHT22;9340;48.756;9.226;2023-05-14T11:00:33;21.60;99.90
18426;DHT22;9340;48.756;9.226;2023-05-14T11:03:02;22.00;99.90
18426;DHT22;9340;48.756;9.226;2023-05-14T11:05:31;22.20;99.90
18426;DHT22;9340;48.756;9.226;2023-05-14T11:08:04;21.60;99.90
18426;DHT22;9340;48.756;9.226;2023-05-14T11:10:32;21.40;99.90
18426;DHT22;9340;48.756;9.226;2023-05-14T11:12:59;21.50;99.90
18426;DHT22;9340;48.756;9.226;2023-05-14T11:15:26;21.60;99.90
18426;DHT22;9340;48.756;9.226;2023-05-14T11:17:53;21.90;99.90
18426;DHT22;9340;48.756;9.226;2023-05-14T11:20:20;21.70;99.90
18426;DHT22;9340;48.756;9.226;2023-05-14T11:22:48;21.40;99.90
18426;DHT22;9340;48.756;9.226;2023-05-14T11:25:16;21.50;99.90
18426;DHT22;9340;48.756;9.226;2023-05-14T11:27:44;21.90;99.90
18426;DHT22;9340;48.756;9.226;2023-05-14T11:30:13;22.00;99.90
18426;DHT22;9340;48.756;9.226;2023-05-14T11:32:40;21.70;99.90
18426;DHT22;9340;48.756;9.226;2023-05-14T11:35:07;21.30;99.90
18426;DHT22;9340;48.756;9.226;2023-05-14T11:37:34;21.00;99.90
18426;DHT22;9340;48.756;9.226;2023-05-14T11:40:06;21.00;99.90
18426;DHT22;9340;48.756;9.226;2023-05-14T11:42:35;20.80;99.90
18426;DHT22;9340;48.756;9.226;2023-05-14T11:45:04;20.90;99.90
18426;DHT22;9340;48.756;9.226;2023-05-14T11:47:31;21.30;99.90
18426;DHT22;9340;48.756;9.226;2023-05-14T11:49:58;21.70;99.90
18426;DHT22;9340;48.756;9.226;2023-05-14T11:52:25;22.00;99.90
18426;DHT22;9340;48.756;9.226;2023-05-14T11:54:52;21.50;99.90
18426;DHT22;9340;48.756;9.226;2023-05-14T11:57:20;20.80;99.90
18426;DHT22;9340;48.756;9.226;2023-05-14T11:59:48;20.90;99.90
18426;DHT22;9340;48.756;9.226;2023-05-14T12:02:20;21.20;99.90
18426;DHT22;9340;48.756;9.226;2023-05-14T12:04:49;21.10;99.90
18426;DHT22;9340;48.756;9.226;2023-05-14T12:07:17;21.00;99.90
18426;DHT22;9340;48.756;9.226;2023-05-14T12:09:45;20.50;99.90
18426;DHT22;9340;48.756;9.226;2023-05-14T12:12:14;20.20;99.90
18426;DHT22;9340;48.756;9.226;2023-05-14T12:14:43;20.30;99.90
18426;DHT22;9340;48.756;9.226;2023-05-14T12:17:13;20.20;99.90
18426;DHT22;9340;48.756;9.226;2023-05-14T12:19:41;20.40;99.90
18426;DHT22;9340;48.756;9.226;2023-05-14T12:22:09;21.10;99.90
18426;DHT22;9340;48.756;9.226;2023-05-14T12:24:36;21.00;99.90
18426;DHT22;9340;48.756;9.226;2023-05-14T12:27:04;20.50;99.90
18426;DHT22;9340;48.756;9.226;2023-05-14T12:29:34;20.00;99.90
18426;DHT22;9340;48.756;9.226;2023-05-14T12:32:05;19.90;99.90
18426;DHT22;9340;48.756;9.226;2023-05-14T12:34:33;19.80;99.90
18426;DHT22;9340;48.756;9.226;2023-05-14T12:37:00;19.70;99.90
18426;DHT22;9340;48.756;9.226;2023-05-14T12:39:27;19.80;99.90
18426;DHT22;9340;48.756;9.226;2023-05-14T12:41:54;19.80;99.90
18426;DHT22;9340;48.756;9.226;2023-05-14T12:44:20;20.00;99.90
18426;DHT22;9340;48.756;9.226;2023-05-14T12:46:47;20.30;99.90
18426;DHT22;9340;48.756;9.226;2023-05-14T12:49:15;20.50;99.90
18426;DHT22;9340;48.756;9.226;2023-05-14T12:51:42;20.20;99.90
18426;DHT22;9340;48.756;9.226;2023-05-14T12:54:08;20.00;99.90
18426;DHT22;9340;48.756;9.226;2023-05-14T12:56:37;19.80;99.90
18426;DHT22;9340;48.756;9.226;2023-05-14T12:59:03;19.50;99.90
18426;DHT22;9340;48.756;9.226;2023-05-14T13:01:30;19.80;99.90
18426;DHT22;9340;48.756;9.226;2023-05-14T13:03:57;20.30;99.90
18426;DHT22;9340;48.756;9.226;2023-05-14T13:06:25;20.80;99.90
18426;DHT22;9340;48.756;9.226;2023-05-14T13:08:52;21.00;99.90
18426;DHT22;9340;48.756;9.226;2023-05-14T13:11:18;20.90;99.90
18426;DHT22;9340;48.756;9.226;2023-05-14T13:13:45;20.40;99.90
18426;DHT22;9340;48.756;9.226;2023-05-14T13:16:12;19.70;99.90
18426;DHT22;9340;48.756;9.226;2023-05-14T13:18:41;19.40;99.90
18426;DHT22;9340;48.756;9.226;2023-05-14T13:21:07;19.30;99.90
18426;DHT22;9340;48.756;9.226;2023-05-14T13:23:35;19.50;99.90
18426;DHT22;9340;48.756;9.226;2023-05-14T13:26:02;19.90;99.90
18426;DHT22;9340;48.756;9.226;2023-05-14T13:28:29;20.20;99.90
18426;DHT22;9340;48.756;9.226;2023-05-14T13:31:03;20.70;99.90
18426;DHT22;9340;48.756;9.226;2023-05-14T13:33:31;21.00;99.90
18426;DHT22;9340;48.756;9.226;2023-05-14T13:35:57;21.20;99.90
18426;DHT22;9340;48.756;9.226;2023-05-14T13:38:24;21.40;99.90
18426;DHT22;9340;48.756;9.226;2023-05-14T13:40:52;21.30;99.90
18426;DHT22;9340;48.756;9.226;2023-05-14T13:43:21;21.00;99.90
18426;DHT22;9340;48.756;9.226;2023-05-14T13:45:48;20.50;99.90
18426;DHT22;9340;48.756;9.226;2023-05-14T13:48:15;20.20;99.90
18426;DHT22;9340;48.756;9.226;2023-05-14T13:50:42;20.20;99.90
18426;DHT22;9340;48.756;9.226;2023-05-14T13:53:08;20.30;99.90
18426;DHT22;9340;48.756;9.226;2023-05-14T13:55:35;20.60;99.90
18426;DHT22;9340;48.756;9.226;2023-05-14T13:58:03;20.90;99.90
18426;DHT22;9340;48.756;9.226;2023-05-14T14:00:30;21.10;99.90
18426;DHT22;9340;48.756;9.226;2023-05-14T14:02:56;21.20;99.90
18426;DHT22;9340;48.756;9.226;2023-05-14T14:05:23;21.10;99.90
18426;DHT22;9340;48.756;9.226;2023-05-14T14:07:52;20.70;99.90
18426;DHT22;9340;48.756;9.226;2023-05-14T14:10:19;20.50;99.90
18426;DHT22;9340;48.756;9.226;2023-05-14T14:12:46;20.40;99.90
18426;DHT22;9340;48.756;9.226;2023-05-14T14:15:14;20.30;99.90
18426;DHT22;9340;48.756;9.226;2023-05-14T14:17:41;20.30;99.90
18426;DHT22;9340;48.756;9.226;2023-05-14T14:20:08;20.40;99.90
18426;DHT22;9340;48.756;9.226;2023-05-14T14:22:35;20.30;99.90
18426;DHT22;9340;48.756;9.226;2023-05-14T14:25:02;20.20;99.90
18426;DHT22;9340;48.756;9.226;2023-05-14T14:27:29;20.30;99.90
18426;DHT22;9340;48.756;9.226;2023-05-14T14:29:58;20.50;99.90
18426;DHT22;9340;48.756;9.226;2023-05-14T14:32:26;20.60;99.90
18426;DHT22;9340;48.756;9.226;2023-05-14T14:34:52;20.60;99.90
18426;DHT22;9340;48.756;9.226;2023-05-14T14:37:19;20.80;99.90
18426;DHT22;9340;48.756;9.226;2023-05-14T14:39:46;20.80;99.90
18426;DHT22;9340;48.756;9.226;2023-05-14T14:42:12;20.90;99.90
18426;DHT22;9340;48.756;9.226;2023-05-14T14:44:39;21.10;99.90
18426;DHT22;9340;48.756;9.226;2023-05-14T14:47:06;21.50;99.90
18426;DHT22;9340;48.756;9.226;2023-05-14T14:49:34;21.80;99.90
18426;DHT22;9340;48.756;9.226;2023-05-14T14:52:01;22.20;99.90
18426;DHT22;9340;48.756;9.226;2023-05-14T14:54:27;22.60;99.90
18426;DHT22;9340;48.756;9.226;2023-05-14T14:56:54;22.70;99.90
18426;DHT22;9340;48.756;9.226;2023-05-14T14:59:21;22.50;99.90
18426;DHT22;9340;48.756;9.226;2023-05-14T15:01:47;22.60;99.90
18426;DHT22;9340;48.756;9.226;2023-05-14T15:04:14;22.50;99.90
18426;DHT22;9340;48.756;9.226;2023-05-14T15:06:42;21.90;99.90
18426;DHT22;9340;48.756;9.226;2023-05-14T15:09:09;21.30;99.90
18426;DHT22;9340;48.756;9.226;2023-05-14T15:11:35;20.40;99.90
18426;DHT22;9340;48.756;9.226;2023-05-14T15:14:02;19.50;99.90
18426;DHT22;9340;48.756;9.226;2023-05-14T15:16:29;19.10;99.90
18426;DHT22;9340;48.756;9.226;2023-05-14T15:18:55;18.90;99.90
18426;DHT22;9340;48.756;9.226;2023-05-14T15:21:22;18.80;99.90
18426;DHT22;9340;48.756;9.226;2023-05-14T15:23:50;18.60;99.90
18426;DHT22;9340;48.756;9.226;2023-05-14T15:26:16;18.40;99.90
18426;DHT22;9340;48.756;9.226;2023-05-14T15:28:43;18.40;99.90
18426;DHT22;9340;48.756;9.226;2023-05-14T15:31:10;18.30;99.90
18426;DHT22;9340;48.756;9.226;2023-05-14T15:33:36;18.30;99.90
18426;DHT22;9340;48.756;9.226;2023-05-14T15:36:04;18.20;99.90
18426;DHT22;9340;48.756;9.226;2023-05-14T15:38:31;18.00;99.90
18426;DHT22;9340;48.756;9.226;2023-05-14T15:40:59;17.80;99.90
18426;DHT22;9340;48.756;9.226;2023-05-14T15:43:26;17.70;99.90
18426;DHT22;9340;48.756;9.226;2023-05-14T15:45:52;17.20;99.90
18426;DHT22;9340;48.756;9.226;2023-05-14T15:48:19;17.00;99.90